createdAt,value
2023-03-24T00:05:01.593Z,2.30
2023-03-24T00:10:05.016Z,2.38
2023-03-24T00:15:12.700Z,2.10
2023-03-24T00:20:16.970Z,1.83
2023-03-24T00:25:23.660Z,2.05
2023-03-24T00:30:27.858Z,2.10
2023-03-24T00:35:30.744Z,1.90
2023-03-24T00:40:33.553Z,1.98
2023-03-24T00:45:37.734Z,1.80
2023-03-24T00:50:41.873Z,2.10
2023-03-24T00:55:46.068Z,2.00
2023-03-24T01:00:52.344Z,1.92
2023-03-24T01:05:57.534Z,2.30
2023-03-24T01:11:01.607Z,2.05
2023-03-24T01:16:06.654Z,2.00
2023-03-24T01:21:11.091Z,2.03
2023-03-24T01:26:13.910Z,2.20
2023-03-24T01:31:18.100Z,2.05
2023-03-24T01:36:20.966Z,2.08
2023-03-24T01:41:23.786Z,2.38
2023-03-24T01:46:29.799Z,2.10
2023-03-24T01:51:36.506Z,2.30
2023-03-24T01:56:43.780Z,2.05
2023-03-24T02:01:48.103Z,2.30
2023-03-24T02:06:51.227Z,2.13
2023-03-24T02:11:54.067Z,2.38
2023-03-24T02:17:33.215Z,2.15
2023-03-24T02:23:30.033Z,2.22
2023-03-24T02:28:42.146Z,2.38
2023-03-24T02:34:16.065Z,1.80
2023-03-24T02:39:41.688Z,1.80
2023-03-24T02:44:52.828Z,1.83
2023-03-24T02:50:03.266Z,2.10
2023-03-24T02:55:13.486Z,2.40
2023-03-24T03:00:20.005Z,2.00
2023-03-24T03:05:28.649Z,1.85
2023-03-24T03:10:35.869Z,1.90
2023-03-24T03:15:42.762Z,2.15
2023-03-24T03:20:53.135Z,1.90
2023-03-24T03:26:05.477Z,1.75
2023-03-24T03:31:14.890Z,2.30
2023-03-24T03:36:23.254Z,1.83
2023-03-24T03:41:27.916Z,1.95
2023-03-24T03:46:31.037Z,1.92
2023-03-24T03:51:34.723Z,2.00
2023-03-24T03:56:40.875Z,2.00
2023-03-24T04:01:43.775Z,2.05
2023-03-24T04:06:57.419Z,2.08
2023-03-24T04:12:22.486Z,1.80
2023-03-24T04:17:42.625Z,2.10
2023-03-24T04:23:03.014Z,1.98
2023-03-24T04:28:16.775Z,2.05
2023-03-24T04:33:28.635Z,2.25
2023-03-24T04:38:33.249Z,1.73
2023-03-24T04:43:38.293Z,1.70
2023-03-24T04:48:41.196Z,1.90
2023-03-24T04:53:44.202Z,1.75
2023-03-24T04:58:48.477Z,1.55
2023-03-24T05:03:51.633Z,2.10
2023-03-24T05:08:54.480Z,2.00
2023-03-24T05:13:58.773Z,1.80
2023-03-24T05:19:01.918Z,1.73
2023-03-24T05:24:05.005Z,1.80
2023-03-24T05:29:09.183Z,2.00
2023-03-24T05:34:12.228Z,1.92
2023-03-24T05:39:15.170Z,2.08
2023-03-24T05:44:19.507Z,1.75
2023-03-24T05:49:22.486Z,5.88
2023-03-24T05:54:25.501Z,2.88
2023-03-24T05:59:29.834Z,2.80
2023-03-24T06:04:32.855Z,2.60
2023-03-24T06:09:38.949Z,3.33
2023-03-24T06:14:45.529Z,4.70
2023-03-24T06:19:49.885Z,3.65
2023-03-24T06:24:53.775Z,4.45
2023-03-24T06:29:58.095Z,4.05
2023-03-24T06:35:01.056Z,3.65
2023-03-24T06:40:10.565Z,3.35
2023-03-24T06:45:14.776Z,3.95
2023-03-24T06:50:17.718Z,3.47
2023-03-24T06:55:22.314Z,3.28
2023-03-24T07:00:26.812Z,3.25
2023-03-24T07:05:30.508Z,3.33
2023-03-24T07:10:33.850Z,3.28
2023-03-24T07:15:38.057Z,3.10
2023-03-24T07:20:41.381Z,3.53
2023-03-24T07:25:44.711Z,3.20
2023-03-24T07:30:49.127Z,3.10
2023-03-24T07:35:55.565Z,2.88
2023-03-24T07:40:59.977Z,3.10
2023-03-24T07:46:04.349Z,2.83
2023-03-24T07:51:07.530Z,3.30
2023-03-24T07:56:10.329Z,3.03
2023-03-24T08:01:15.220Z,2.60
2023-03-24T08:06:18.141Z,3.00
2023-03-24T08:11:21.008Z,3.13
2023-03-24T08:16:25.859Z,3.10
2023-03-24T08:21:28.725Z,3.72
2023-03-24T08:26:35.118Z,3.88
2023-03-24T08:31:39.789Z,3.17
2023-03-24T08:36:42.622Z,3.17
2023-03-24T08:41:46.344Z,3.53
2023-03-24T08:46:50.572Z,2.80
2023-03-24T08:51:53.436Z,2.38
2023-03-24T08:56:56.322Z,2.80
2023-03-24T09:02:00.569Z,2.80
2023-03-24T09:07:03.901Z,2.83
2023-03-24T09:12:07.258Z,2.78
2023-03-24T09:17:11.812Z,2.63
2023-03-24T09:22:14.725Z,2.60
2023-03-24T09:27:18.137Z,2.55
2023-03-24T09:32:22.539Z,3.03
2023-03-24T09:37:25.534Z,2.42
2023-03-24T09:42:33.418Z,2.72
2023-03-24T09:47:49.499Z,2.58
2023-03-24T09:52:55.716Z,2.67
2023-03-24T09:58:04.123Z,2.63
2023-03-24T10:03:19.382Z,2.58
2023-03-24T10:08:30.771Z,2.85
2023-03-24T10:13:50.341Z,2.40
2023-03-24T10:19:00.905Z,2.50
2023-03-24T10:24:11.163Z,2.35
2023-03-24T10:29:24.152Z,2.60
2023-03-24T10:34:31.389Z,2.50
2023-03-24T10:39:44.244Z,2.33
2023-03-24T10:44:49.416Z,2.13
2023-03-24T10:50:00.728Z,2.25
2023-03-24T10:55:19.018Z,2.30
2023-03-24T11:00:27.087Z,2.08
2023-03-24T11:05:35.209Z,2.38
2023-03-24T11:10:38.615Z,2.40
2023-03-24T11:15:54.371Z,2.47
2023-03-24T11:21:00.939Z,2.50
2023-03-24T11:26:08.853Z,2.35
2023-03-24T11:31:18.410Z,2.10
2023-03-24T11:36:54.035Z,1.98
2023-03-24T11:42:20.932Z,1.95
2023-03-24T11:47:29.537Z,2.03
2023-03-24T11:52:39.575Z,1.90
2023-03-24T11:57:48.906Z,1.90
2023-03-24T12:03:09.798Z,2.20
2023-03-24T12:08:31.226Z,2.08
2023-03-24T12:13:37.255Z,1.83
2023-03-24T12:18:54.911Z,1.90
2023-03-24T12:24:02.383Z,2.13
2023-03-24T12:29:27.749Z,1.88
2023-03-24T12:34:54.450Z,1.75
2023-03-24T12:40:12.974Z,1.60
2023-03-24T12:45:39.402Z,2.00
2023-03-24T12:50:58.996Z,1.90
2023-03-24T12:56:11.013Z,1.70
2023-03-24T13:01:22.203Z,1.58
2023-03-24T13:06:29.522Z,1.60
2023-03-24T13:11:39.766Z,1.90
2023-03-24T13:16:46.347Z,1.52
2023-03-24T13:21:50.190Z,1.88
2023-03-24T13:27:01.468Z,1.75
2023-03-24T13:32:11.203Z,1.65
2023-03-24T13:37:18.012Z,1.58
2023-03-24T13:42:32.725Z,1.55
2023-03-24T13:47:56.643Z,1.73
2023-03-24T13:53:08.094Z,1.50
2023-03-24T13:58:20.209Z,1.70
2023-03-24T14:03:34.346Z,1.30
2023-03-24T14:08:55.935Z,1.80
2023-03-24T14:14:07.647Z,1.88
2023-03-24T14:19:25.310Z,1.48
2023-03-24T14:24:30.716Z,1.50
2023-03-24T14:29:41.311Z,1.63
2023-03-24T14:34:53.273Z,1.90
2023-03-24T14:39:58.408Z,1.55
2023-03-24T14:45:04.268Z,1.52
2023-03-24T14:50:18.536Z,1.35
2023-03-24T14:55:22.361Z,1.67
2023-03-24T15:00:32.134Z,1.33
2023-03-24T15:05:37.067Z,1.45
2023-03-24T15:10:44.006Z,1.42
2023-03-24T15:15:49.307Z,1.38
2023-03-24T15:20:52.815Z,1.60
2023-03-24T15:25:56.477Z,1.77
2023-03-24T15:31:01.252Z,1.70
2023-03-24T15:36:04.372Z,1.40
2023-03-24T15:41:11.178Z,1.92
2023-03-24T15:46:26.145Z,1.55
2023-03-24T15:51:49.223Z,1.73
2023-03-24T15:57:03.005Z,2.40
2023-03-24T16:02:18.608Z,1.58
2023-03-24T16:07:29.471Z,2.22
2023-03-24T16:12:33.707Z,2.05
2023-03-24T16:17:38.001Z,1.83
2023-03-24T16:22:41.851Z,1.90
2023-03-24T16:27:44.787Z,1.92
2023-03-24T16:32:48.999Z,1.77
2023-03-24T16:37:51.863Z,1.70
2023-03-24T16:42:54.647Z,1.80
2023-03-24T16:47:59.232Z,2.30
2023-03-24T16:53:03.858Z,2.10
2023-03-24T16:58:07.241Z,2.75
2023-03-24T17:03:13.956Z,2.65
2023-03-24T17:08:18.641Z,2.38
2023-03-24T17:13:23.518Z,2.60
2023-03-24T17:18:27.737Z,2.95
2023-03-24T17:23:31.343Z,2.75
2023-03-24T17:28:34.329Z,3.17
2023-03-24T17:33:38.492Z,2.60
2023-03-24T17:38:41.669Z,2.40
2023-03-24T17:43:46.669Z,3.22
2023-03-24T17:48:50.889Z,2.95
2023-03-24T17:53:54.520Z,3.03
2023-03-24T17:58:59.639Z,2.92
2023-03-24T18:04:04.263Z,2.00
2023-03-24T18:09:08.658Z,2.38
2023-03-24T18:14:11.517Z,2.47
2023-03-24T18:19:16.150Z,2.63
2023-03-24T18:24:19.034Z,2.83
2023-03-24T18:29:23.026Z,2.50
2023-03-24T18:34:27.963Z,2.25
2023-03-24T18:39:30.816Z,2.03
2023-03-24T18:44:33.679Z,2.08
2023-03-24T18:49:37.842Z,2.05
2023-03-24T18:54:40.672Z,1.75
2023-03-24T18:59:43.482Z,1.77
2023-03-24T19:04:48.231Z,1.77
2023-03-24T19:09:51.145Z,2.20
2023-03-24T19:14:56.053Z,1.80
2023-03-24T19:20:00.742Z,2.05
2023-03-24T19:25:03.629Z,1.70
2023-03-24T19:30:08.624Z,1.85
2023-03-24T19:35:13.114Z,1.90
2023-03-24T19:40:16.576Z,1.73
2023-03-24T19:45:20.053Z,1.58
2023-03-24T19:50:24.371Z,1.80
2023-03-24T19:55:27.328Z,1.42
2023-03-24T20:00:32.091Z,1.67
2023-03-24T20:05:36.820Z,1.60
2023-03-24T20:10:40.067Z,1.38
2023-03-24T20:15:42.921Z,1.48
2023-03-24T20:20:47.354Z,1.27
2023-03-24T20:25:51.048Z,1.10
2023-03-24T20:30:59.887Z,1.27
2023-03-24T20:36:04.875Z,1.20
2023-03-24T20:41:08.706Z,1.30
2023-03-24T20:46:11.827Z,1.30
2023-03-24T20:51:16.785Z,1.13
2023-03-24T20:56:19.606Z,1.27
2023-03-24T21:01:23.939Z,1.10
2023-03-24T21:06:29.812Z,1.08
2023-03-24T21:11:33.277Z,1.20
2023-03-24T21:16:37.584Z,1.15
2023-03-24T21:21:42.964Z,1.10
2023-03-24T21:26:46.380Z,1.23
2023-03-24T21:31:49.690Z,1.17
2023-03-24T21:36:55.551Z,1.20
2023-03-24T21:41:58.389Z,1.00
2023-03-24T21:47:01.558Z,1.20
2023-03-24T21:52:06.119Z,1.33
2023-03-24T21:57:09.046Z,1.05
2023-03-24T22:02:14.332Z,1.17
2023-03-24T22:07:18.743Z,1.17
2023-03-24T22:12:21.650Z,0.90
2023-03-24T22:17:24.595Z,1.00
2023-03-24T22:22:28.826Z,1.00
2023-03-24T22:27:32.030Z,1.05
2023-03-24T22:32:35.104Z,1.10
2023-03-24T22:37:39.407Z,0.80
2023-03-24T22:42:42.226Z,1.00
2023-03-24T22:47:45.266Z,1.13
2023-03-24T22:52:49.467Z,1.02
2023-03-24T22:57:52.486Z,1.00
2023-03-24T23:02:55.366Z,0.85
2023-03-24T23:08:00.241Z,0.70
2023-03-24T23:13:04.115Z,0.90
2023-03-24T23:18:07.369Z,0.73
2023-03-24T23:23:11.956Z,0.82
2023-03-24T23:28:15.386Z,0.90
2023-03-24T23:33:18.372Z,0.80
2023-03-24T23:38:22.641Z,0.90
2023-03-24T23:43:25.641Z,0.80
2023-03-24T23:48:31.182Z,0.77
2023-03-24T23:53:36.367Z,0.90
2023-03-24T23:58:41.298Z,1.90
